createdAt,value
2022-12-23T00:00:42.909Z,9.07
2022-12-23T00:03:09.908Z,10.80
2022-12-23T00:05:38.750Z,10.48
2022-12-23T00:08:07.058Z,9.55
2022-12-23T00:10:37.815Z,9.43
2022-12-23T00:13:23.424Z,8.32
2022-12-23T00:15:50.367Z,10.10
2022-12-23T00:18:17.397Z,9.50
2022-12-23T00:20:44.233Z,8.98
2022-12-23T00:23:11.096Z,9.23
2022-12-23T00:25:43.880Z,7.60
2022-12-23T00:28:19.228Z,8.77
2022-12-23T00:30:48.482Z,8.68
2022-12-23T00:33:17.053Z,7.40
2022-12-23T00:35:45.253Z,8.18
2022-12-23T00:38:12.845Z,9.07
2022-12-23T00:40:58.300Z,9.30
2022-12-23T00:43:25.334Z,5.85
2022-12-23T00:45:52.411Z,7.15
2022-12-23T00:48:37.737Z,7.05
2022-12-23T00:51:04.714Z,7.13
2022-12-23T00:53:32.628Z,6.03
2022-12-23T00:55:59.543Z,7.30
2022-12-23T00:58:26.625Z,5.00
2022-12-23T01:01:12.696Z,5.13
2022-12-23T01:03:58.202Z,6.03
2022-12-23T01:06:25.010Z,8.25
2022-12-23T01:08:51.814Z,7.75
2022-12-23T01:11:18.739Z,8.23
2022-12-23T01:13:45.549Z,8.45
2022-12-23T01:16:17.101Z,8.07
2022-12-23T01:18:44.678Z,8.82
2022-12-23T01:21:13.500Z,7.93
2022-12-23T01:23:40.424Z,6.63
2022-12-23T01:26:08.119Z,6.35
2022-12-23T01:28:36.233Z,8.52
2022-12-23T01:31:05.327Z,10.32
2022-12-23T01:33:33.658Z,8.45
2022-12-23T01:36:06.985Z,7.63
2022-12-23T01:38:35.360Z,6.70
2022-12-23T01:41:02.440Z,8.43
2022-12-23T01:43:50.053Z,6.28
2022-12-23T01:46:20.092Z,8.27
2022-12-23T01:48:55.311Z,8.68
2022-12-23T01:51:30.077Z,7.20
2022-12-23T01:54:01.352Z,8.50
2022-12-23T01:56:36.755Z,7.50
2022-12-23T01:59:32.316Z,7.28
2022-12-23T02:02:18.013Z,8.90
2022-12-23T02:04:46.566Z,8.15
2022-12-23T02:07:32.307Z,9.02
2022-12-23T02:09:59.433Z,10.80
2022-12-23T02:12:28.960Z,7.13
2022-12-23T02:15:49.805Z,8.52
2022-12-23T02:19:01.587Z,6.82
2022-12-23T02:21:45.784Z,7.18
2022-12-23T02:24:52.849Z,7.32
2022-12-23T02:27:53.439Z,7.80
2022-12-23T02:30:45.955Z,6.28
2022-12-23T02:33:30.635Z,6.78
2022-12-23T02:36:15.196Z,10.73
2022-12-23T02:39:06.326Z,6.35
2022-12-23T02:41:37.563Z,7.18
2022-12-23T02:44:29.092Z,7.95
2022-12-23T02:47:02.881Z,7.22
2022-12-23T02:49:36.841Z,6.57
2022-12-23T02:52:09.255Z,10.13
2022-12-23T02:54:41.860Z,6.53
2022-12-23T02:57:11.943Z,5.93
2022-12-23T02:59:46.607Z,7.53
2022-12-23T03:02:13.778Z,7.55
2022-12-23T03:04:42.526Z,8.52
2022-12-23T03:07:25.723Z,10.65
2022-12-23T03:10:06.805Z,6.68
2022-12-23T03:13:03.073Z,8.05
2022-12-23T03:15:47.217Z,6.93
2022-12-23T03:18:34.519Z,8.95
2022-12-23T03:21:24.968Z,6.57
2022-12-23T03:23:59.788Z,7.47
2022-12-23T03:26:38.826Z,5.55
2022-12-23T03:29:25.209Z,4.20
2022-12-23T03:31:54.808Z,3.40
2022-12-23T03:34:26.231Z,6.35
2022-12-23T03:36:57.506Z,3.17
2022-12-23T03:39:29.893Z,4.70
2022-12-23T03:42:06.094Z,5.25
2022-12-23T03:44:37.317Z,6.22
2022-12-23T03:47:04.093Z,5.35
2022-12-23T03:49:53.309Z,6.22
2022-12-23T03:52:27.277Z,5.78
2022-12-23T03:54:56.118Z,4.43
2022-12-23T03:57:28.513Z,3.45
2022-12-23T03:59:55.724Z,4.28
2022-12-23T04:02:50.523Z,3.60
2022-12-23T04:05:40.125Z,4.25
2022-12-23T04:08:34.622Z,4.68
2022-12-23T04:11:02.058Z,5.32
2022-12-23T04:13:29.737Z,5.78
2022-12-23T04:16:01.391Z,4.82
2022-12-23T04:18:29.194Z,5.38
2022-12-23T04:20:55.983Z,5.97
2022-12-23T04:23:22.997Z,5.95
2022-12-23T04:25:49.807Z,5.18
2022-12-23T04:28:18.212Z,5.50
2022-12-23T04:30:45.022Z,4.65
2022-12-23T04:33:12.694Z,4.57
2022-12-23T04:35:39.606Z,8.30
2022-12-23T04:38:06.568Z,6.97
2022-12-23T04:40:35.916Z,5.78
2022-12-23T04:43:02.791Z,5.10
2022-12-23T04:45:29.759Z,6.47
2022-12-23T04:47:56.668Z,7.10
2022-12-23T04:50:23.644Z,6.28
2022-12-23T04:52:50.470Z,6.50
2022-12-23T04:55:17.842Z,9.63
2022-12-23T04:57:44.657Z,4.68
2022-12-23T05:00:12.108Z,6.40
2022-12-23T05:02:39.097Z,8.35
2022-12-23T05:05:06.388Z,6.45
2022-12-23T05:07:33.203Z,5.68
2022-12-23T05:10:01.898Z,6.10
2022-12-23T05:12:30.403Z,9.55
2022-12-23T05:14:57.357Z,6.78
2022-12-23T05:17:26.492Z,6.63
2022-12-23T05:19:53.341Z,7.18
2022-12-23T05:22:20.133Z,7.32
2022-12-23T05:24:47.349Z,5.47
2022-12-23T05:27:17.173Z,8.63
2022-12-23T05:29:44.128Z,6.60
2022-12-23T05:32:10.991Z,9.35
2022-12-23T05:34:37.910Z,7.30
2022-12-23T05:37:07.363Z,7.68
2022-12-23T05:39:34.310Z,7.13
2022-12-23T05:42:01.103Z,7.97
2022-12-23T05:44:27.902Z,6.70
2022-12-23T05:46:55.766Z,7.50
2022-12-23T05:49:22.781Z,7.35
2022-12-23T05:51:49.611Z,6.38
2022-12-23T05:54:16.404Z,5.80
2022-12-23T05:56:43.179Z,5.47
2022-12-23T05:59:10.016Z,4.57
2022-12-23T06:01:37.059Z,5.38
2022-12-23T06:04:04.316Z,5.28
2022-12-23T06:06:31.186Z,6.88
2022-12-23T06:08:59.957Z,5.32
2022-12-23T06:11:27.675Z,6.03
2022-12-23T06:13:54.764Z,8.40
2022-12-23T06:16:21.730Z,6.25
2022-12-23T06:18:48.630Z,6.28
2022-12-23T06:21:15.481Z,6.05
2022-12-23T06:23:42.307Z,4.75
2022-12-23T06:26:09.230Z,4.38
2022-12-23T06:28:36.043Z,5.20
2022-12-23T06:31:02.972Z,6.10
2022-12-23T06:33:29.832Z,7.70
2022-12-23T06:35:56.651Z,3.95
2022-12-23T06:38:23.525Z,6.95
2022-12-23T06:40:50.616Z,5.30
2022-12-23T06:43:17.694Z,5.55
2022-12-23T06:45:48.780Z,7.57
2022-12-23T06:48:16.516Z,5.90
2022-12-23T06:50:43.800Z,4.18
2022-12-23T06:53:10.862Z,4.70
2022-12-23T06:55:37.665Z,6.45
2022-12-23T06:58:05.574Z,7.32
2022-12-23T07:00:32.599Z,8.13
2022-12-23T07:02:59.640Z,6.75
2022-12-23T07:05:28.561Z,6.88
2022-12-23T07:08:00.266Z,8.18
2022-12-23T07:10:27.131Z,5.72
2022-12-23T07:12:53.964Z,5.18
2022-12-23T07:15:20.784Z,5.85
2022-12-23T07:17:47.593Z,8.15
2022-12-23T07:20:14.721Z,4.03
2022-12-23T07:22:41.551Z,5.20
2022-12-23T07:25:08.906Z,4.97
2022-12-23T07:27:35.698Z,5.78
2022-12-23T07:30:02.740Z,5.93
2022-12-23T07:32:29.562Z,5.88
2022-12-23T07:34:56.353Z,5.85
2022-12-23T07:37:25.916Z,4.43
2022-12-23T07:39:52.794Z,5.53
2022-12-23T07:42:47.411Z,5.03
2022-12-23T07:45:07.194Z,7.78
2022-12-23T07:47:33.988Z,5.38
2022-12-23T07:50:00.741Z,8.13
2022-12-23T07:52:28.914Z,6.95
2022-12-23T07:54:55.768Z,7.20
2022-12-23T07:57:24.278Z,6.72
2022-12-23T07:59:51.127Z,6.82
2022-12-23T08:02:18.091Z,5.20
2022-12-23T08:04:46.455Z,7.05
2022-12-23T08:07:13.565Z,7.20
2022-12-23T08:09:40.409Z,8.20
2022-12-23T08:12:07.408Z,8.10
2022-12-23T08:14:34.229Z,6.30
2022-12-23T08:17:01.179Z,9.32
2022-12-23T08:19:28.141Z,8.60
2022-12-23T08:21:55.020Z,8.05
2022-12-23T08:24:21.845Z,8.82
2022-12-23T08:26:48.724Z,9.10
2022-12-23T08:29:15.707Z,9.43
2022-12-23T08:31:42.710Z,10.85
2022-12-23T08:34:10.632Z,10.45
2022-12-23T08:36:37.612Z,9.75
2022-12-23T08:39:07.799Z,7.90
2022-12-23T08:41:38.958Z,7.70
2022-12-23T08:44:06.440Z,10.95
2022-12-23T08:46:33.837Z,7.10
2022-12-23T08:49:01.033Z,7.65
2022-12-23T08:51:28.429Z,8.18
2022-12-23T08:54:00.476Z,9.32
2022-12-23T08:56:38.868Z,9.38
2022-12-23T08:59:06.408Z,6.78
2022-12-23T09:01:34.477Z,10.45
2022-12-23T09:04:05.947Z,8.40
2022-12-23T09:06:38.846Z,10.57
2022-12-23T09:09:06.566Z,7.22
2022-12-23T09:11:34.168Z,7.68
2022-12-23T09:14:01.611Z,6.47
2022-12-23T09:16:28.937Z,6.57
2022-12-23T09:18:56.197Z,9.20
2022-12-23T09:21:24.552Z,5.63
2022-12-23T09:23:52.082Z,7.35
2022-12-23T09:26:22.724Z,5.00
2022-12-23T09:28:49.969Z,5.60
2022-12-23T09:31:17.571Z,5.45
2022-12-23T09:33:48.233Z,5.88
2022-12-23T09:36:15.287Z,3.92
2022-12-23T09:38:42.295Z,4.32
2022-12-23T09:41:40.436Z,7.20
2022-12-23T09:44:27.574Z,6.72
2022-12-23T09:46:59.505Z,7.30
2022-12-23T09:49:28.476Z,8.05
2022-12-23T09:52:01.608Z,5.82
2022-12-23T09:54:36.409Z,9.52
2022-12-23T09:57:31.850Z,6.78
2022-12-23T10:00:15.852Z,6.10
2022-12-23T10:03:34.801Z,5.95
2022-12-23T10:06:11.012Z,6.78
2022-12-23T10:08:46.714Z,4.38
2022-12-23T10:11:22.094Z,8.38
2022-12-23T10:13:50.645Z,6.25
2022-12-23T10:16:21.057Z,4.65
2022-12-23T10:18:57.054Z,6.00
2022-12-23T10:21:46.940Z,5.15
2022-12-23T10:24:26.305Z,7.07
2022-12-23T10:27:00.134Z,7.00
2022-12-23T10:29:32.694Z,9.55
2022-12-23T10:32:27.187Z,4.95
2022-12-23T10:35:22.192Z,4.13
2022-12-23T10:37:59.128Z,5.63
2022-12-23T10:40:46.860Z,6.47
2022-12-23T10:43:41.342Z,6.60
2022-12-23T10:46:21.259Z,6.28
2022-12-23T10:49:03.646Z,5.63
2022-12-23T10:51:45.523Z,7.40
2022-12-23T10:54:25.753Z,6.75
2022-12-23T10:56:53.619Z,8.43
2022-12-23T10:59:28.643Z,6.25
2022-12-23T11:02:09.397Z,7.03
2022-12-23T11:04:38.148Z,8.05
2022-12-23T11:07:42.074Z,6.75
2022-12-23T11:10:20.124Z,6.60
2022-12-23T11:12:50.245Z,6.07
2022-12-23T11:15:38.461Z,5.03
2022-12-23T11:18:14.403Z,6.63
2022-12-23T11:20:44.396Z,4.70
2022-12-23T11:23:29.863Z,5.82
2022-12-23T11:26:23.218Z,4.95
2022-12-23T11:29:01.669Z,5.68
2022-12-23T11:31:36.567Z,4.88
2022-12-23T11:34:14.559Z,4.47
2022-12-23T11:36:41.702Z,4.93
2022-12-23T11:39:14.608Z,4.60
2022-12-23T11:41:50.042Z,5.47
2022-12-23T11:44:39.194Z,5.25
2022-12-23T11:47:18.159Z,4.38
2022-12-23T11:49:51.106Z,3.90
2022-12-23T11:52:23.677Z,4.10
2022-12-23T11:54:57.134Z,3.05
2022-12-23T11:57:44.782Z,2.78
2022-12-23T12:00:25.163Z,2.78
2022-12-23T12:02:58.733Z,3.10
2022-12-23T12:05:49.577Z,3.13
2022-12-23T12:08:21.919Z,3.00
2022-12-23T12:10:52.098Z,3.25
2022-12-23T12:13:31.199Z,4.53
2022-12-23T12:16:16.175Z,3.55
2022-12-23T12:18:48.035Z,3.65
2022-12-23T12:21:28.593Z,2.78
2022-12-23T12:24:27.972Z,3.38
2022-12-23T12:26:59.957Z,3.45
2022-12-23T12:29:50.695Z,3.67
2022-12-23T12:32:50.729Z,3.05
2022-12-23T12:35:35.839Z,1.90
2022-12-23T12:38:29.991Z,2.10
2022-12-23T12:41:21.252Z,2.40
2022-12-23T12:43:58.965Z,1.65
2022-12-23T12:46:41.114Z,2.20
2022-12-23T12:49:30.896Z,1.63
2022-12-23T12:52:15.396Z,1.60
2022-12-23T12:55:05.431Z,1.40
2022-12-23T12:57:35.406Z,1.50
2022-12-23T13:00:06.458Z,1.48
2022-12-23T13:03:17.247Z,2.42
2022-12-23T13:06:19.473Z,1.42
2022-12-23T13:09:10.187Z,1.38
2022-12-23T13:11:44.914Z,1.17
2022-12-23T13:14:20.676Z,1.10
2022-12-23T13:17:16.938Z,2.13
2022-12-23T13:20:13.095Z,1.42
2022-12-23T13:22:40.516Z,1.95
2022-12-23T13:25:29.976Z,1.40
2022-12-23T13:28:26.765Z,1.17
2022-12-23T13:31:22.911Z,1.20
2022-12-23T13:34:28.052Z,1.10
2022-12-23T13:37:17.067Z,1.58
2022-12-23T13:40:05.214Z,2.42
2022-12-23T13:42:39.342Z,1.10
2022-12-23T13:45:13.966Z,1.15
2022-12-23T13:47:43.870Z,1.40
2022-12-23T13:50:36.788Z,1.38
2022-12-23T13:53:06.585Z,2.38
2022-12-23T13:55:42.325Z,1.42
2022-12-23T13:58:17.953Z,1.60
2022-12-23T14:00:45.143Z,1.60
2022-12-23T14:03:14.726Z,1.65
2022-12-23T14:05:52.803Z,1.95
2022-12-23T14:08:19.550Z,1.50
2022-12-23T14:10:55.081Z,1.80
2022-12-23T14:13:25.271Z,2.40
2022-12-23T14:16:03.266Z,1.75
2022-12-23T14:18:43.027Z,1.65
2022-12-23T14:21:40.433Z,3.25
2022-12-23T14:24:42.892Z,1.60
2022-12-23T14:27:27.848Z,1.80
2022-12-23T14:29:57.424Z,2.35
2022-12-23T14:32:30.805Z,2.40
2022-12-23T14:35:17.959Z,3.83
2022-12-23T14:38:14.829Z,2.40
2022-12-23T14:41:18.597Z,2.65
2022-12-23T14:43:45.463Z,1.80
2022-12-23T14:46:36.349Z,3.35
2022-12-23T14:52:44.299Z,4.53
2022-12-23T14:55:32.420Z,2.60
2022-12-23T14:58:25.679Z,2.60
2022-12-23T15:01:43.578Z,3.50
2022-12-23T15:04:13.478Z,5.13
2022-12-23T15:06:50.825Z,4.00
2022-12-23T15:09:27.930Z,5.15
2022-12-23T15:11:57.705Z,6.70
2022-12-23T15:14:38.592Z,6.03
2022-12-23T15:17:35.997Z,5.20
2022-12-23T15:20:24.313Z,6.47
2022-12-23T15:22:52.438Z,4.90
2022-12-23T15:25:26.399Z,8.05
2022-12-23T15:28:01.148Z,8.45
2022-12-23T15:30:34.012Z,6.22
2022-12-23T15:33:06.362Z,7.18
2022-12-23T15:35:40.536Z,6.45
2022-12-23T15:38:07.341Z,2.53
2022-12-23T15:40:36.377Z,6.57
2022-12-23T15:43:26.318Z,7.63
2022-12-23T15:45:53.762Z,7.85
2022-12-23T15:48:32.309Z,9.32
2022-12-23T15:51:13.541Z,10.68
2022-12-23T15:53:42.710Z,10.05
2022-12-23T15:56:32.106Z,7.35
2022-12-23T15:59:00.046Z,11.52
2022-12-23T16:01:27.161Z,8.52
2022-12-23T16:04:00.844Z,8.02
2022-12-23T16:06:32.951Z,11.30
2022-12-23T16:09:02.660Z,10.45
2022-12-23T16:11:57.440Z,10.70
2022-12-23T16:14:27.785Z,10.85
2022-12-23T16:16:59.949Z,10.73
2022-12-23T16:19:53.677Z,13.88
2022-12-23T16:22:20.535Z,13.75
2022-12-23T16:25:24.671Z,11.32
2022-12-23T16:28:02.449Z,14.13
2022-12-23T16:30:44.126Z,14.52
2022-12-23T16:33:22.967Z,12.70
2022-12-23T16:35:50.061Z,14.57
2022-12-23T16:38:18.310Z,16.80
2022-12-23T16:40:48.430Z,10.88
2022-12-23T16:43:15.601Z,14.88
2022-12-23T16:45:44.535Z,14.77
2022-12-23T16:48:34.508Z,13.85
2022-12-23T16:51:04.287Z,9.02
2022-12-23T16:53:31.525Z,15.63
2022-12-23T16:56:00.826Z,12.45
2022-12-23T16:58:28.539Z,12.57
2022-12-23T17:00:55.854Z,13.50
2022-12-23T17:03:22.724Z,15.27
2022-12-23T17:05:49.598Z,9.65
2022-12-23T17:08:16.457Z,16.10
2022-12-23T17:10:47.087Z,14.90
2022-12-23T17:13:17.358Z,13.23
2022-12-23T17:15:44.975Z,13.65
2022-12-23T17:18:17.609Z,12.75
2022-12-23T17:20:49.537Z,13.40
2022-12-23T17:23:30.888Z,15.57
2022-12-23T17:25:58.132Z,16.88
2022-12-23T17:28:31.281Z,16.58
2022-12-23T17:30:58.870Z,15.70
2022-12-23T17:33:30.045Z,12.70
2022-12-23T17:35:57.609Z,16.90
2022-12-23T17:38:24.881Z,15.40
2022-12-23T17:40:51.755Z,17.52
2022-12-23T17:43:19.166Z,10.85
2022-12-23T17:45:47.081Z,15.93
2022-12-23T17:48:20.207Z,12.20
2022-12-23T17:50:49.513Z,9.23
2022-12-23T17:53:20.123Z,11.32
2022-12-23T17:55:47.186Z,12.05
2022-12-23T17:58:14.297Z,12.93
2022-12-23T18:00:41.404Z,18.65
2022-12-23T18:03:22.420Z,10.68
2022-12-23T18:05:51.906Z,11.75
2022-12-23T18:08:21.243Z,13.48
2022-12-23T18:10:48.173Z,14.10
2022-12-23T18:13:20.113Z,12.35
2022-12-23T18:15:47.799Z,12.35
2022-12-23T18:18:32.983Z,10.95
2022-12-23T18:21:05.940Z,16.05
2022-12-23T18:23:33.952Z,19.75
2022-12-23T18:26:01.201Z,15.75
2022-12-23T18:28:28.024Z,14.82
2022-12-23T18:30:56.755Z,14.25
2022-12-23T18:33:29.367Z,19.50
2022-12-23T18:35:56.333Z,16.00
2022-12-23T18:38:23.354Z,18.08
2022-12-23T18:40:53.931Z,14.70
2022-12-23T18:43:23.473Z,15.77
2022-12-23T18:45:53.297Z,13.18
2022-12-23T18:48:21.534Z,14.55
2022-12-23T18:50:48.496Z,13.82
2022-12-23T18:53:25.091Z,15.98
2022-12-23T18:55:53.612Z,12.52
2022-12-23T18:58:20.893Z,9.30
2022-12-23T19:00:50.293Z,14.45
2022-12-23T19:03:29.710Z,11.48
2022-12-23T19:05:57.737Z,18.67
2022-12-23T19:08:27.407Z,18.13
2022-12-23T19:10:55.925Z,17.27
2022-12-23T19:13:23.061Z,13.68
2022-12-23T19:15:50.354Z,14.13
2022-12-23T19:18:20.232Z,12.48
2022-12-23T19:20:48.108Z,15.93
2022-12-23T19:23:15.731Z,14.38
2022-12-23T19:25:52.679Z,12.10
2022-12-23T19:28:22.448Z,16.83
2022-12-23T19:30:49.772Z,14.85
2022-12-23T19:33:17.277Z,15.98
2022-12-23T19:35:44.605Z,12.90
2022-12-23T19:38:12.353Z,11.50
2022-12-23T19:40:40.360Z,12.55
2022-12-23T19:43:07.666Z,12.68
2022-12-23T19:45:34.512Z,11.27
2022-12-23T19:48:01.446Z,18.17
2022-12-23T19:50:28.326Z,18.40
2022-12-23T19:52:56.537Z,16.15
2022-12-23T19:55:24.008Z,10.93
2022-12-23T19:57:52.197Z,14.77
2022-12-23T20:00:19.138Z,11.98
2022-12-23T20:02:46.218Z,15.73
2022-12-23T20:05:13.103Z,13.90
2022-12-23T20:07:42.844Z,10.52
2022-12-23T20:10:10.143Z,16.30
2022-12-23T20:12:37.099Z,15.60
2022-12-23T20:15:04.126Z,17.55
2022-12-23T20:17:30.990Z,12.93
2022-12-23T20:19:57.852Z,16.70
2022-12-23T20:22:24.758Z,14.52
2022-12-23T20:24:51.681Z,13.32
2022-12-23T20:27:24.287Z,15.40
2022-12-23T20:29:54.625Z,15.88
2022-12-23T20:32:21.595Z,9.43
2022-12-23T20:34:49.989Z,16.05
2022-12-23T20:37:17.559Z,14.05
2022-12-23T20:39:44.490Z,15.00
2022-12-23T20:42:11.336Z,15.85
2022-12-23T20:44:38.205Z,10.65
2022-12-23T20:47:08.346Z,13.82
2022-12-23T20:49:35.192Z,12.60
2022-12-23T20:52:02.396Z,14.18
2022-12-23T20:54:33.110Z,17.13
2022-12-23T20:57:02.407Z,19.13
2022-12-23T20:59:29.444Z,21.30
2022-12-23T21:01:59.092Z,16.80
2022-12-23T21:04:26.594Z,10.07
2022-12-23T21:06:53.475Z,10.80
2022-12-23T21:09:20.327Z,17.23
2022-12-23T21:11:47.699Z,13.45
2022-12-23T21:14:15.426Z,16.63
2022-12-23T21:16:42.772Z,18.65
2022-12-23T21:19:17.607Z,20.67
2022-12-23T21:21:44.945Z,17.33
2022-12-23T21:24:12.248Z,17.17
2022-12-23T21:26:39.374Z,17.33
2022-12-23T21:29:08.383Z,20.77
2022-12-23T21:31:37.985Z,14.07
2022-12-23T21:34:05.504Z,16.58
2022-12-23T21:36:40.623Z,16.65
2022-12-23T21:39:10.705Z,15.00
2022-12-23T21:41:41.242Z,22.48
2022-12-23T21:44:08.819Z,12.63
2022-12-23T21:46:35.823Z,17.83
2022-12-23T21:49:03.020Z,15.70
2022-12-23T21:51:39.640Z,19.27
2022-12-23T21:54:09.254Z,18.90
2022-12-23T21:56:36.441Z,17.33
2022-12-23T21:59:11.238Z,17.90
2022-12-23T22:01:38.324Z,19.05
2022-12-23T22:04:05.525Z,16.98
2022-12-23T22:06:37.127Z,18.17
2022-12-23T22:09:06.395Z,18.23
2022-12-23T22:11:35.268Z,18.75
2022-12-23T22:14:04.116Z,19.70
2022-12-23T22:16:31.939Z,18.38
2022-12-23T22:19:00.372Z,24.45
2022-12-23T22:21:29.620Z,16.88
2022-12-23T22:23:57.262Z,17.88
2022-12-23T22:26:26.992Z,22.48
2022-12-23T22:28:59.099Z,18.67
2022-12-23T22:31:40.284Z,20.23
2022-12-23T22:34:08.102Z,20.20
2022-12-23T22:36:35.193Z,18.13
2022-12-23T22:39:02.975Z,15.68
2022-12-23T22:41:30.774Z,17.15
2022-12-23T22:43:58.715Z,22.40
2022-12-23T22:46:26.392Z,18.40
2022-12-23T22:48:54.111Z,18.17
2022-12-23T22:51:27.077Z,15.27
2022-12-23T22:53:54.921Z,19.67
2022-12-23T22:56:23.178Z,15.95
2022-12-23T22:58:51.886Z,19.42
2022-12-23T23:01:26.748Z,15.45
2022-12-23T23:03:58.248Z,17.35
2022-12-23T23:06:29.320Z,25.70
2022-12-23T23:08:56.987Z,20.30
2022-12-23T23:11:26.037Z,20.45
2022-12-23T23:13:53.754Z,20.42
2022-12-23T23:16:21.408Z,17.42
2022-12-23T23:18:48.597Z,15.02
2022-12-23T23:21:15.499Z,16.58
2022-12-23T23:23:42.351Z,15.63
2022-12-23T23:26:10.319Z,16.58
2022-12-23T23:28:39.545Z,15.68
2022-12-23T23:31:40.486Z,17.17
2022-12-23T23:33:54.275Z,18.73
2022-12-23T23:36:21.149Z,16.00
2022-12-23T23:38:48.035Z,18.15
2022-12-23T23:41:18.876Z,21.48
2022-12-23T23:43:49.564Z,18.98
2022-12-23T23:46:16.481Z,19.38
2022-12-23T23:48:43.426Z,14.68
2022-12-23T23:51:10.405Z,15.38
2022-12-23T23:53:37.242Z,13.05
2022-12-23T23:56:06.577Z,18.65
2022-12-23T23:58:34.709Z,18.45
